Time;durP1;ratioP1;P1;durP2;ratioP2;P2;SDS_P1;SDS_P2;PMS_P1;PMS_P2;Temp;Humidity;BMP_temperature;BMP_pressure;BME280_temperature;BME280_humidity;BME280_pressure;Samples;Min_cycle;Max_cycle;Signal;HPM_P1;HPM_P2
2023/01/15 00:00:47;;;;;;;;;;;;;;;22.33;20.37;97692.66;5041233;28;19921;-91
2023/01/15 00:03:13;;;;;;;;;;;;;;;22.36;20.79;97693.78;5038674;28;19917;-91
2023/01/15 00:05:39;;;;;;;;;;;;;;;22.72;19.83;97688.25;5042890;28;19994;-91
2023/01/15 00:08:05;;;;;;;;;;;;;;;23.06;20.31;97681.03;5045346;28;20388;-91
2023/01/15 00:10:31;;;;;;;;;;;;;;;23.07;20.22;97679.81;5045184;28;19921;-92
2023/01/15 00:12:57;;;;;;;;;;;;;;;22.94;19.96;97690.09;5045681;28;19963;-91
2023/01/15 00:15:23;;;;;;;;;;;;;;;23.00;19.78;97681.97;5042446;28;19925;-91
2023/01/15 00:17:49;;;;;;;;;;;;;;;23.32;19.53;97682.78;5052037;28;20384;-91
2023/01/15 00:20:15;;;;;;;;;;;;;;;22.53;20.76;97682.22;5053596;28;19921;-91
2023/01/15 00:22:41;;;;;;;;;;;;;;;23.05;19.94;97682.25;5058913;28;19921;-91
2023/01/15 00:27:54;;;;;;;;;;;;;;;23.12;19.98;97675.69;5048151;28;19989;-92
2023/01/15 00:30:20;;;;;;;;;;;;;;;23.52;19.63;97665.91;5042373;28;19928;-91
2023/01/15 00:32:46;;;;;;;;;;;;;;;23.54;19.43;97663.44;5042200;28;19928;-92
2023/01/15 00:35:13;;;;;;;;;;;;;;;23.73;19.43;97673.75;5051154;28;19933;-92
2023/01/15 00:37:39;;;;;;;;;;;;;;;23.55;19.30;97667.03;5056317;28;19920;-92
2023/01/15 00:40:06;;;;;;;;;;;;;;;23.50;19.43;97661.97;5055684;28;20266;-92
2023/01/15 00:42:32;;;;;;;;;;;;;;;23.65;19.68;97660.34;5049187;28;19925;-92
2023/01/15 00:44:58;;;;;;;;;;;;;;;23.87;19.38;97661.34;5048136;28;19916;-92
2023/01/15 00:47:24;;;;;;;;;;;;;;;24.01;18.57;97655.34;5043469;28;19943;-92
2023/01/15 00:49:50;;;;;;;;;;;;;;;24.10;18.73;97657.53;5054697;28;20368;-92
2023/01/15 00:52:16;;;;;;;;;;;;;;;23.58;18.72;97640.91;5051458;28;19920;-92
2023/01/15 00:54:43;;;;;;;;;;;;;;;22.86;20.32;97643.91;5052568;28;20389;-92
2023/01/15 00:57:10;;;;;;;;;;;;;;;23.38;19.60;97631.84;5049782;28;19967;-92
2023/01/15 00:59:36;;;;;;;;;;;;;;;23.39;19.74;97620.19;5056996;28;19951;-92
2023/01/15 01:02:02;;;;;;;;;;;;;;;22.31;20.32;97618.81;5047224;28;19976;-92
2023/01/15 01:04:28;;;;;;;;;;;;;;;22.95;20.36;97618.09;5052474;28;20015;-92
2023/01/15 01:06:54;;;;;;;;;;;;;;;22.58;19.99;97608.19;5052258;28;20408;-92
2023/01/15 01:09:20;;;;;;;;;;;;;;;22.40;20.72;97600.22;5048398;28;19928;-91
2023/01/15 01:11:48;;;;;;;;;;;;;;;22.95;19.81;97606.91;5044394;28;19921;-91
2023/01/15 01:14:14;;;;;;;;;;;;;;;23.34;19.72;97601.09;5047063;28;20372;-92
2023/01/15 01:16:40;;;;;;;;;;;;;;;23.22;20.10;97596.22;5044625;28;19926;-92
2023/01/15 01:19:08;;;;;;;;;;;;;;;22.50;20.83;97601.94;5046312;28;20011;-92
2023/01/15 01:21:36;;;;;;;;;;;;;;;23.61;19.43;97592.41;5047042;28;19920;-93
2023/01/15 01:24:02;;;;;;;;;;;;;;;23.43;19.26;97594.91;5044624;28;19921;-93
2023/01/15 01:26:28;;;;;;;;;;;;;;;23.41;19.69;97595.31;5041729;28;19967;-94
2023/01/15 01:28:55;;;;;;;;;;;;;;;22.90;20.30;97590.63;5045061;28;19921;-93
2023/01/15 01:31:21;;;;;;;;;;;;;;;22.45;21.16;97594.06;5052165;28;20023;-93
2023/01/15 01:33:48;;;;;;;;;;;;;;;23.12;20.48;97581.28;5054587;28;20025;-93
2023/01/15 01:36:14;;;;;;;;;;;;;;;21.06;21.15;97577.75;5060632;28;19927;-93
2023/01/15 01:38:40;;;;;;;;;;;;;;;21.21;23.02;97576.25;5048640;28;19928;-92
2023/01/15 01:41:06;;;;;;;;;;;;;;;21.93;21.20;97585.66;5049821;28;19921;-93
2023/01/15 01:43:51;;;;;;;;;;;;;;;22.76;20.91;97568.59;5048494;28;19928;-93
2023/01/15 01:46:17;;;;;;;;;;;;;;;22.97;20.55;97552.06;5039492;28;19929;-92
2023/01/15 01:48:44;;;;;;;;;;;;;;;22.73;20.95;97561.09;5065013;28;19924;-93
2023/01/15 01:51:10;;;;;;;;;;;;;;;22.87;21.06;97557.94;5049112;28;20415;-93
2023/01/15 01:53:37;;;;;;;;;;;;;;;22.96;20.88;97550.50;5047336;28;19940;-93
2023/01/15 01:56:06;;;;;;;;;;;;;;;22.83;20.36;97535.63;5042151;28;19985;-92
2023/01/15 01:58:33;;;;;;;;;;;;;;;22.76;20.81;97537.81;5044314;28;20004;-92
2023/01/15 02:01:00;;;;;;;;;;;;;;;22.85;20.90;97524.75;5047178;28;19925;-92
2023/01/15 02:03:30;;;;;;;;;;;;;;;23.18;20.87;97531.88;5048689;28;20326;-93
2023/01/15 02:05:59;;;;;;;;;;;;;;;22.99;20.24;97526.41;5050646;28;19944;-93
2023/01/15 02:08:25;;;;;;;;;;;;;;;22.14;22.46;97525.69;5050651;28;19921;-92
2023/01/15 02:10:52;;;;;;;;;;;;;;;21.82;21.75;97515.19;5052358;28;19921;-93
2023/01/15 02:13:39;;;;;;;;;;;;;;;22.32;21.70;97516.88;5047086;28;19928;-92
2023/01/15 02:16:13;;;;;;;;;;;;;;;22.46;20.96;97522.13;5042885;28;19933;-92
2023/01/15 02:18:49;;;;;;;;;;;;;;;22.24;21.96;97527.44;5045174;28;20266;-92
2023/01/15 02:21:23;;;;;;;;;;;;;;;23.03;20.42;97518.72;5041555;28;19921;-92
2023/01/15 02:23:53;;;;;;;;;;;;;;;22.63;21.67;97520.94;5041655;28;19921;-92
2023/01/15 02:26:37;;;;;;;;;;;;;;;22.99;21.08;97518.78;5048984;28;19917;-92
2023/01/15 02:29:06;;;;;;;;;;;;;;;22.35;21.53;97511.22;5049673;28;19921;-93
2023/01/15 02:31:35;;;;;;;;;;;;;;;22.50;22.39;97511.63;5047100;28;19952;-93
2023/01/15 02:34:05;;;;;;;;;;;;;;;22.66;22.14;97511.69;5050831;28;19921;-92
2023/01/15 02:36:33;;;;;;;;;;;;;;;23.29;20.41;97500.81;5043063;28;19985;-92
2023/01/15 02:39:01;;;;;;;;;;;;;;;23.38;20.53;97498.94;5050353;28;20347;-92
2023/01/15 02:41:31;;;;;;;;;;;;;;;24.05;19.60;97491.34;5053517;28;20400;-93
2023/01/15 02:43:58;;;;;;;;;;;;;;;24.42;19.28;97491.81;5050177;28;19916;-92
2023/01/15 02:46:26;;;;;;;;;;;;;;;22.78;21.83;97485.75;5045779;28;19929;-93
2023/01/15 02:48:54;;;;;;;;;;;;;;;23.38;20.33;97493.34;5045210;28;20443;-93
2023/01/15 02:51:25;;;;;;;;;;;;;;;22.91;20.75;97509.03;5043870;28;19917;-93
2023/01/15 02:53:53;;;;;;;;;;;;;;;23.28;20.70;97502.03;5044086;28;19924;-92
2023/01/15 02:56:21;;;;;;;;;;;;;;;21.83;21.52;97502.00;5051345;28;20294;-91
2023/01/15 02:58:50;;;;;;;;;;;;;;;23.02;21.01;97489.13;5052094;28;19928;-92
2023/01/15 03:01:21;;;;;;;;;;;;;;;22.73;21.35;97505.91;5049229;28;20343;-92
2023/01/15 03:04:05;;;;;;;;;;;;;;;23.69;20.30;97490.84;5043345;28;19983;-92
2023/01/15 03:06:41;;;;;;;;;;;;;;;23.74;20.02;97486.69;5050139;28;19935;-92
2023/01/15 03:09:07;;;;;;;;;;;;;;;22.70;21.82;97501.19;5053559;28;19921;-93
2023/01/15 03:11:37;;;;;;;;;;;;;;;23.75;19.80;97493.88;5052652;28;19921;-93
2023/01/15 03:14:14;;;;;;;;;;;;;;;23.42;20.90;97500.84;5049925;28;19920;-93
2023/01/15 03:16:49;;;;;;;;;;;;;;;23.08;21.24;97498.59;5053008;28;19998;-92
2023/01/15 03:19:28;;;;;;;;;;;;;;;23.87;19.75;97498.72;5054324;28;19923;-92
2023/01/15 03:21:56;;;;;;;;;;;;;;;24.19;19.49;97501.38;5052997;28;20265;-92
2023/01/15 03:24:36;;;;;;;;;;;;;;;23.67;19.93;97493.31;5054703;28;19975;-93
2023/01/15 03:27:02;;;;;;;;;;;;;;;23.62;20.31;97499.47;5046814;28;19948;-93
2023/01/15 03:29:31;;;;;;;;;;;;;;;24.07;19.40;97485.31;5051327;28;19925;-93
2023/01/15 03:31:58;;;;;;;;;;;;;;;24.19;19.68;97486.53;5049069;28;19917;-93
2023/01/15 03:34:28;;;;;;;;;;;;;;;24.05;20.13;97488.53;5047845;28;19962;-93
2023/01/15 03:36:54;;;;;;;;;;;;;;;24.65;19.71;97485.81;5044779;28;19920;-92
2023/01/15 03:39:20;;;;;;;;;;;;;;;24.53;19.65;97481.00;5041104;28;20673;-93
2023/01/15 03:41:58;;;;;;;;;;;;;;;24.78;19.64;97481.00;5044951;28;19921;-93
2023/01/15 03:44:31;;;;;;;;;;;;;;;25.19;19.13;97479.94;5036982;28;20297;-93
2023/01/15 03:46:58;;;;;;;;;;;;;;;25.41;19.28;97483.56;5039141;28;19933;-93
2023/01/15 03:49:27;;;;;;;;;;;;;;;25.70;18.72;97486.13;5036637;28;19936;-92
2023/01/15 03:52:02;;;;;;;;;;;;;;;25.68;19.09;97472.53;5042545;28;19964;-92
2023/01/15 03:54:47;;;;;;;;;;;;;;;25.40;18.34;97479.97;5043941;28;19920;-93
2023/01/15 03:57:28;;;;;;;;;;;;;;;25.89;18.64;97482.97;5049001;28;20295;-93
2023/01/15 03:59:56;;;;;;;;;;;;;;;25.86;18.87;97469.03;5042235;28;19939;-92
2023/01/15 04:02:23;;;;;;;;;;;;;;;25.55;18.60;97473.84;5043468;28;19940;-92
2023/01/15 04:04:51;;;;;;;;;;;;;;;24.76;20.20;97458.22;5043074;28;20380;-92
2023/01/15 04:07:17;;;;;;;;;;;;;;;24.78;19.62;97454.94;5044769;28;20374;-92
2023/01/15 04:09:43;;;;;;;;;;;;;;;24.54;19.49;97443.28;5037024;28;19971;-93
2023/01/15 04:12:09;;;;;;;;;;;;;;;24.77;19.14;97440.13;5043462;28;19928;-92
2023/01/15 04:14:35;;;;;;;;;;;;;;;24.43;18.64;97429.63;5037783;28;19971;-92
2023/01/15 04:17:01;;;;;;;;;;;;;;;23.91;20.29;97427.28;5038785;28;20358;-93
2023/01/15 04:19:27;;;;;;;;;;;;;;;23.30;19.93;97423.94;5039112;28;19928;-93
2023/01/15 04:21:53;;;;;;;;;;;;;;;24.09;20.26;97423.16;5035156;28;19921;-93
2023/01/15 04:24:19;;;;;;;;;;;;;;;24.42;19.37;97419.63;5040795;28;19928;-93
2023/01/15 04:26:45;;;;;;;;;;;;;;;24.24;19.50;97407.44;5040519;28;20000;-93
2023/01/15 04:29:11;;;;;;;;;;;;;;;24.32;20.27;97394.75;5049091;28;20015;-94
2023/01/15 04:31:37;;;;;;;;;;;;;;;23.36;21.37;97394.94;5036600;28;19990;-92
2023/01/15 04:34:03;;;;;;;;;;;;;;;23.65;20.22;97397.69;5039706;28;19928;-92
2023/01/15 04:36:29;;;;;;;;;;;;;;;23.29;20.77;97389.53;5037550;28;20012;-92
2023/01/15 04:38:56;;;;;;;;;;;;;;;22.93;21.59;97391.00;5036940;28;19995;-92
2023/01/15 04:44:07;;;;;;;;;;;;;;;23.61;20.13;97380.19;5040854;28;22593;-92
2023/01/15 04:46:35;;;;;;;;;;;;;;;24.24;20.51;97385.00;5038560;28;19933;-92
2023/01/15 04:49:01;;;;;;;;;;;;;;;24.37;19.57;97382.94;5036604;28;19920;-92
2023/01/15 04:51:27;;;;;;;;;;;;;;;23.84;21.95;97382.66;5038256;28;19968;-92
2023/01/15 04:53:53;;;;;;;;;;;;;;;23.66;21.76;97373.25;5044049;28;20344;-92
2023/01/15 04:56:19;;;;;;;;;;;;;;;23.40;21.68;97374.44;5036827;28;19921;-92
2023/01/15 04:58:45;;;;;;;;;;;;;;;23.87;20.53;97367.75;5044695;28;20407;-92
2023/01/15 05:01:12;;;;;;;;;;;;;;;24.37;20.67;97372.50;5039552;28;19917;-92
2023/01/15 05:03:38;;;;;;;;;;;;;;;24.13;20.50;97362.94;5044656;28;19921;-93
2023/01/15 05:06:04;;;;;;;;;;;;;;;22.95;21.35;97366.16;5037245;28;20013;-93
2023/01/15 05:08:31;;;;;;;;;;;;;;;22.96;20.75;97359.34;5037590;28;19921;-92
2023/01/15 05:11:04;;;;;;;;;;;;;;;23.04;20.98;97352.28;5047088;28;19928;-92
2023/01/15 05:13:32;;;;;;;;;;;;;;;23.49;20.72;97338.16;5040426;28;20377;-92
2023/01/15 05:16:07;;;;;;;;;;;;;;;23.59;21.90;97346.22;5045688;28;19925;-92
2023/01/15 05:18:33;;;;;;;;;;;;;;;23.62;20.70;97341.75;5058253;28;19980;-93
2023/01/15 05:20:59;;;;;;;;;;;;;;;24.08;20.23;97329.84;5061457;28;19964;-93
2023/01/15 05:23:25;;;;;;;;;;;;;;;24.54;19.71;97334.63;5040468;28;20018;-91
2023/01/15 05:25:51;;;;;;;;;;;;;;;23.52;20.64;97318.44;5040961;28;19929;-91
2023/01/15 05:28:18;;;;;;;;;;;;;;;23.88;20.31;97329.25;5044515;28;20368;-91
2023/01/15 05:30:44;;;;;;;;;;;;;;;22.89;20.76;97323.16;5039619;28;20443;-92
2023/01/15 05:33:10;;;;;;;;;;;;;;;22.93;21.34;97313.41;5041529;28;20312;-92
2023/01/15 05:35:36;;;;;;;;;;;;;;;22.90;22.03;97311.50;5050389;28;19921;-92
2023/01/15 05:38:05;;;;;;;;;;;;;;;23.13;21.54;97310.41;5055673;28;20319;-92
2023/01/15 05:40:31;;;;;;;;;;;;;;;23.38;20.63;97308.44;5044585;28;19952;-91
2023/01/15 05:42:57;;;;;;;;;;;;;;;23.41;21.21;97309.56;5041552;28;20396;-91
2023/01/15 05:45:23;;;;;;;;;;;;;;;23.58;21.12;97305.41;5047918;28;19937;-92
2023/01/15 05:47:51;;;;;;;;;;;;;;;23.73;21.21;97297.34;5038715;28;19933;-92
2023/01/15 05:50:17;;;;;;;;;;;;;;;22.68;22.53;97294.53;5044155;28;19979;-93
2023/01/15 05:52:43;;;;;;;;;;;;;;;23.03;21.40;97286.34;5042127;28;20368;-93
2023/01/15 05:55:09;;;;;;;;;;;;;;;22.73;23.00;97284.03;5053815;28;19921;-92
2023/01/15 05:57:35;;;;;;;;;;;;;;;21.87;23.30;97285.53;5038467;28;19928;-91
2023/01/15 06:00:02;;;;;;;;;;;;;;;22.44;23.78;97276.41;5044654;28;19966;-92
2023/01/15 06:02:28;;;;;;;;;;;;;;;21.85;24.04;97271.22;5046545;28;19921;-91
2023/01/15 06:04:54;;;;;;;;;;;;;;;21.84;23.68;97269.63;5039057;28;19929;-92
2023/01/15 06:07:20;;;;;;;;;;;;;;;21.78;23.90;97274.16;5044465;28;19920;-92
2023/01/15 06:09:46;;;;;;;;;;;;;;;22.11;22.36;97260.97;5055553;28;19924;-91
2023/01/15 06:12:12;;;;;;;;;;;;;;;21.43;24.53;97258.28;5050763;28;22867;-91
2023/01/15 06:14:38;;;;;;;;;;;;;;;21.22;24.57;97250.41;5049460;28;20333;-93
2023/01/15 06:17:04;;;;;;;;;;;;;;;22.19;22.70;97259.56;5048688;28;20019;-92
2023/01/15 06:19:31;;;;;;;;;;;;;;;21.92;22.73;97259.06;5055313;28;19917;-91
2023/01/15 06:21:57;;;;;;;;;;;;;;;22.84;21.67;97260.09;5046296;28;20383;-92
2023/01/15 06:24:23;;;;;;;;;;;;;;;23.91;21.03;97269.50;5053885;28;19925;-92
2023/01/15 06:26:49;;;;;;;;;;;;;;;23.18;22.58;97260.22;5054200;28;19921;-91
2023/01/15 06:29:17;;;;;;;;;;;;;;;22.92;22.61;97260.69;5046961;28;20395;-92
2023/01/15 06:31:43;;;;;;;;;;;;;;;22.83;22.09;97271.72;5045973;28;19925;-91
2023/01/15 06:34:09;;;;;;;;;;;;;;;22.94;22.75;97258.22;5051715;28;19935;-92
2023/01/15 06:36:35;;;;;;;;;;;;;;;24.00;22.38;97261.16;5038397;28;19928;-92
2023/01/15 06:39:01;;;;;;;;;;;;;;;24.28;20.75;97270.63;5037328;28;19924;-91
2023/01/15 06:47:19;;;;;;;;;;;;;;;22.80;21.79;97275.44;5047020;28;20023;-89
2023/01/15 06:49:46;;;;;;;;;;;;;;;23.93;20.76;97278.22;5049663;28;19916;-90
2023/01/15 06:52:12;;;;;;;;;;;;;;;24.13;20.85;97278.00;5054698;28;19971;-90
2023/01/15 06:54:38;;;;;;;;;;;;;;;24.22;20.14;97273.25;5054954;28;19921;-90
2023/01/15 06:57:04;;;;;;;;;;;;;;;24.70;20.36;97271.91;5052760;28;20392;-90
2023/01/15 06:59:30;;;;;;;;;;;;;;;24.36;20.26;97263.53;5054156;28;20373;-94
2023/01/15 07:01:56;;;;;;;;;;;;;;;24.61;19.71;97257.81;5054266;28;19921;-95
2023/01/15 07:04:22;;;;;;;;;;;;;;;24.19;20.44;97259.34;5054996;28;19929;-94
2023/01/15 07:06:48;;;;;;;;;;;;;;;23.54;21.52;97242.31;5054838;28;19920;-91
2023/01/15 07:09:15;;;;;;;;;;;;;;;23.37;22.36;97247.25;5045960;28;20262;-92
2023/01/15 07:11:50;;;;;;;;;;;;;;;23.85;22.18;97252.44;5053907;28;19928;-92
2023/01/15 07:14:16;;;;;;;;;;;;;;;24.57;20.84;97243.13;5052232;28;19948;-92
2023/01/15 07:16:42;;;;;;;;;;;;;;;23.56;22.34;97248.25;5054254;28;20023;-90
2023/01/15 07:19:08;;;;;;;;;;;;;;;23.53;21.93;97247.13;5051669;28;20468;-91
2023/01/15 07:21:34;;;;;;;;;;;;;;;23.51;21.33;97258.00;5047236;28;19929;-91
2023/01/15 07:24:01;;;;;;;;;;;;;;;24.03;21.88;97246.25;5046721;28;19928;-93
2023/01/15 07:26:27;;;;;;;;;;;;;;;24.09;21.18;97252.88;5046809;28;19921;-93
2023/01/15 07:28:53;;;;;;;;;;;;;;;23.62;21.14;97244.44;5051445;28;20274;-95
2023/01/15 07:31:19;;;;;;;;;;;;;;;22.08;22.85;97249.88;5052005;28;19921;-93
2023/01/15 07:33:45;;;;;;;;;;;;;;;22.61;22.83;97249.19;5050559;28;20019;-94
2023/01/15 07:36:11;;;;;;;;;;;;;;;22.76;23.01;97238.34;5051124;28;20257;-93
2023/01/15 07:38:37;;;;;;;;;;;;;;;22.58;23.82;97248.03;5052976;28;20381;-93
2023/01/15 07:52:01;;;;;;;;;;;;;;;23.06;23.65;97241.41;5050744;28;19943;-90
2023/01/15 07:54:28;;;;;;;;;;;;;;;22.79;23.51;97240.25;5050511;28;19917;-91
2023/01/15 07:56:54;;;;;;;;;;;;;;;22.95;23.33;97248.56;5043156;28;19932;-91
2023/01/15 07:59:20;;;;;;;;;;;;;;;23.16;22.69;97248.69;5046795;28;19921;-92
2023/01/15 08:01:47;;;;;;;;;;;;;;;23.65;23.31;97248.34;5048535;28;20365;-92
2023/01/15 08:04:13;;;;;;;;;;;;;;;23.26;22.12;97253.19;5050035;28;19974;-91
2023/01/15 08:06:39;;;;;;;;;;;;;;;24.06;21.09;97253.78;5039914;28;19925;-91
2023/01/15 08:09:05;;;;;;;;;;;;;;;24.57;20.85;97252.34;5045254;28;19925;-91
2023/01/15 08:17:01;;;;;;;;;;;;;;;24.91;21.15;97250.69;5042498;28;19935;-94
2023/01/15 08:19:28;;;;;;;;;;;;;;;25.34;19.60;97242.91;5048765;28;19924;-95
2023/01/15 08:21:55;;;;;;;;;;;;;;;25.39;21.57;97250.75;5048908;28;19943;-93
2023/01/15 08:24:22;;;;;;;;;;;;;;;26.06;19.19;97238.75;5049045;28;19928;-92
2023/01/15 08:26:48;;;;;;;;;;;;;;;25.23;19.35;97250.22;5043226;28;19921;-94
2023/01/15 08:29:14;;;;;;;;;;;;;;;25.77;19.73;97244.00;5047239;28;19925;-90
2023/01/15 08:31:40;;;;;;;;;;;;;;;26.11;19.26;97245.81;5051234;28;19921;-91
2023/01/15 08:34:07;;;;;;;;;;;;;;;26.93;19.08;97243.75;5048227;28;19960;-92
2023/01/15 08:36:33;;;;;;;;;;;;;;;25.58;19.44;97245.25;5047778;28;19928;-90
2023/01/15 08:38:59;;;;;;;;;;;;;;;25.44;19.57;97255.00;5049742;28;19917;-90
2023/01/15 08:41:25;;;;;;;;;;;;;;;25.95;19.66;97238.44;5049053;28;19921;-91
2023/01/15 08:43:51;;;;;;;;;;;;;;;25.74;21.20;97248.53;5048251;28;19974;-90
2023/01/15 08:46:17;;;;;;;;;;;;;;;25.77;21.52;97236.38;5048499;28;19920;-92
2023/01/15 08:48:43;;;;;;;;;;;;;;;24.59;20.86;97247.03;5047912;28;20376;-92
2023/01/15 08:51:11;;;;;;;;;;;;;;;24.90;20.86;97243.50;5048958;28;20016;-93
2023/01/15 08:53:37;;;;;;;;;;;;;;;24.72;20.11;97244.13;5050249;28;19933;-95
2023/01/15 08:56:03;;;;;;;;;;;;;;;24.17;20.68;97239.38;5050156;28;19920;-92
2023/01/15 08:58:30;;;;;;;;;;;;;;;24.42;20.53;97244.88;5050698;28;19927;-92
2023/01/15 09:01:07;;;;;;;;;;;;;;;24.50;20.28;97243.38;5053171;28;20011;-94
2023/01/15 09:03:33;;;;;;;;;;;;;;;24.16;20.22;97241.41;5054734;28;19933;-96
2023/01/15 09:05:59;;;;;;;;;;;;;;;23.68;22.25;97236.25;5056486;28;19925;-92
2023/01/15 09:08:26;;;;;;;;;;;;;;;23.95;21.79;97234.47;5054208;28;19968;-95
2023/01/15 09:10:59;;;;;;;;;;;;;;;23.58;21.71;97223.38;5050252;28;20363;-95
2023/01/15 09:13:25;;;;;;;;;;;;;;;24.00;20.62;97233.91;5044919;28;19932;-92
2023/01/15 09:15:51;;;;;;;;;;;;;;;23.66;22.91;97239.50;5051370;28;19921;-93
2023/01/15 09:18:19;;;;;;;;;;;;;;;24.17;21.57;97236.56;5046438;28;19990;-92
2023/01/15 09:20:46;;;;;;;;;;;;;;;24.40;21.76;97227.72;5048484;28;20851;-92
2023/01/15 09:23:12;;;;;;;;;;;;;;;25.14;21.62;97216.47;5049571;28;19959;-94
2023/01/15 09:25:38;;;;;;;;;;;;;;;25.07;19.73;97214.72;5048822;28;19921;-95
2023/01/15 09:28:04;;;;;;;;;;;;;;;25.92;18.78;97208.44;5047795;28;19935;-94
2023/01/15 09:30:30;;;;;;;;;;;;;;;25.60;18.93;97209.00;5050059;28;19921;-94
2023/01/15 09:32:56;;;;;;;;;;;;;;;23.75;22.96;97205.97;5052914;28;19920;-95
2023/01/15 09:35:22;;;;;;;;;;;;;;;23.76;22.33;97212.34;5052830;28;19928;-96
2023/01/15 09:37:52;;;;;;;;;;;;;;;23.78;20.93;97207.09;5046357;28;19921;-96
2023/01/15 09:40:38;;;;;;;;;;;;;;;25.09;19.63;97208.63;5055485;28;19978;-94
2023/01/15 09:43:07;;;;;;;;;;;;;;;24.77;19.66;97187.44;5046897;28;19956;-95
2023/01/15 09:45:42;;;;;;;;;;;;;;;24.95;19.63;97198.00;5051750;28;19967;-95
2023/01/15 09:48:08;;;;;;;;;;;;;;;24.78;19.84;97194.63;5048907;28;19921;-95
2023/01/15 09:50:52;;;;;;;;;;;;;;;25.69;20.42;97194.97;5047119;28;20395;-96
2023/01/15 09:53:21;;;;;;;;;;;;;;;24.93;23.10;97200.44;5047306;28;19928;-95
2023/01/15 09:55:49;;;;;;;;;;;;;;;25.76;18.54;97191.84;5050330;28;19956;-93
2023/01/15 09:58:19;;;;;;;;;;;;;;;25.16;20.84;97186.66;5048841;28;19921;-94
2023/01/15 10:00:46;;;;;;;;;;;;;;;25.29;19.62;97184.53;5051058;28;19946;-94
2023/01/15 10:03:12;;;;;;;;;;;;;;;26.14;18.50;97188.63;5054905;28;19925;-93
2023/01/15 10:05:46;;;;;;;;;;;;;;;26.48;18.73;97200.31;5050346;28;20003;-96
2023/01/15 10:08:18;;;;;;;;;;;;;;;25.77;19.35;97184.97;5058446;28;19928;-96
2023/01/15 10:10:46;;;;;;;;;;;;;;;26.09;18.59;97187.19;5050348;28;19925;-96
2023/01/15 10:13:32;;;;;;;;;;;;;;;25.75;18.76;97185.44;5045842;28;19936;-96
2023/01/15 10:15:58;;;;;;;;;;;;;;;25.63;19.13;97179.94;5014731;28;19967;-96
2023/01/15 10:18:25;;;;;;;;;;;;;;;26.37;17.65;97173.91;5043352;28;19949;-96
2023/01/15 10:20:51;;;;;;;;;;;;;;;26.67;17.99;97173.69;5045714;28;19921;-96
2023/01/15 10:23:38;;;;;;;;;;;;;;;26.65;18.85;97172.59;5043403;28;19932;-96
2023/01/15 10:26:23;;;;;;;;;;;;;;;26.94;17.99;97166.41;5047153;28;19952;-96
2023/01/15 10:29:05;;;;;;;;;;;;;;;27.36;18.29;97170.75;5048480;28;20317;-96
2023/01/15 10:31:31;;;;;;;;;;;;;;;26.52;20.76;97169.94;5042665;28;19932;-95
2023/01/15 10:34:15;;;;;;;;;;;;;;;26.28;18.14;97180.31;5042896;28;19927;-96
2023/01/15 10:36:44;;;;;;;;;;;;;;;27.11;18.85;97182.47;5042301;28;19971;-96
2023/01/15 10:39:19;;;;;;;;;;;;;;;27.75;17.76;97182.91;5049863;28;19962;-96
2023/01/15 10:41:54;;;;;;;;;;;;;;;28.08;17.52;97185.69;5050432;28;19987;-96
2023/01/15 10:44:32;;;;;;;;;;;;;;;28.38;17.55;97183.72;5043417;28;19951;-96
2023/01/15 10:47:00;;;;;;;;;;;;;;;27.96;17.47;97178.22;5057263;28;19975;-96
2023/01/15 10:49:30;;;;;;;;;;;;;;;27.56;18.09;97166.59;5044790;28;21162;-96
2023/01/15 10:52:05;;;;;;;;;;;;;;;27.92;17.99;97178.41;5043852;28;19920;-96
2023/01/15 10:54:37;;;;;;;;;;;;;;;28.27;17.56;97175.00;5044422;28;19955;-93
2023/01/15 10:57:10;;;;;;;;;;;;;;;28.57;17.31;97173.78;5047164;28;19932;-93
2023/01/15 10:59:36;;;;;;;;;;;;;;;28.05;17.49;97164.09;5045529;28;19999;-96
2023/01/15 11:02:06;;;;;;;;;;;;;;;28.07;17.74;97164.38;5048410;28;19925;-96
2023/01/15 11:04:32;;;;;;;;;;;;;;;28.22;17.21;97167.22;5037820;28;19924;-96
2023/01/15 11:06:59;;;;;;;;;;;;;;;28.45;17.51;97163.56;5037999;28;19947;-96
2023/01/15 11:09:33;;;;;;;;;;;;;;;28.45;17.12;97160.75;5043105;28;20023;-96
2023/01/15 11:20:24;;;;;;;;;;;;;;;27.69;17.51;97130.47;5046789;28;19927;-96
2023/01/15 11:22:50;;;;;;;;;;;;;;;27.87;17.35;97135.97;5046237;28;19921;-96
2023/01/15 11:25:30;;;;;;;;;;;;;;;27.52;17.29;97123.69;5042681;28;19931;-96
2023/01/15 11:28:01;;;;;;;;;;;;;;;27.04;17.45;97131.31;5044075;28;20376;-96
2023/01/15 11:30:32;;;;;;;;;;;;;;;26.48;18.07;97115.84;5045517;28;19925;-96
2023/01/15 11:32:59;;;;;;;;;;;;;;;26.29;19.83;97119.97;5047010;28;19920;-96
2023/01/15 11:35:25;;;;;;;;;;;;;;;26.13;18.57;97117.50;5044896;28;19920;-96
2023/01/15 11:38:02;;;;;;;;;;;;;;;26.43;18.24;97115.69;5048174;28;19935;-96
2023/01/15 11:40:28;;;;;;;;;;;;;;;26.40;18.75;97127.91;5046338;28;19929;-95
2023/01/15 11:51:18;;;;;;;;;;;;;;;25.32;20.92;97106.97;5044285;28;19935;-96
2023/01/15 11:53:53;;;;;;;;;;;;;;;24.87;21.78;97110.44;5042558;28;20020;-95
2023/01/15 11:56:23;;;;;;;;;;;;;;;25.18;21.90;97122.38;5050432;28;19931;-96
2023/01/15 11:58:52;;;;;;;;;;;;;;;24.95;21.15;97106.06;5050473;28;20012;-96
2023/01/15 12:01:34;;;;;;;;;;;;;;;25.80;20.79;97103.28;5045922;28;19929;-93
2023/01/15 12:04:02;;;;;;;;;;;;;;;25.18;21.03;97102.69;5051089;28;19928;-96
2023/01/15 12:06:30;;;;;;;;;;;;;;;25.09;22.08;97090.66;5052196;28;20370;-93
2023/01/15 12:08:56;;;;;;;;;;;;;;;24.98;22.28;97071.44;5050692;28;20395;-92
2023/01/15 12:11:40;;;;;;;;;;;;;;;24.66;21.96;97075.56;5051399;28;19921;-89
2023/01/15 12:14:25;;;;;;;;;;;;;;;24.35;23.74;97091.59;5044901;28;19932;-92
2023/01/15 12:17:11;;;;;;;;;;;;;;;24.39;22.26;97072.59;5048495;28;19921;-92
2023/01/15 12:19:40;;;;;;;;;;;;;;;23.93;24.37;97071.53;5048785;28;19975;-92
2023/01/15 12:22:20;;;;;;;;;;;;;;;24.36;22.68;97065.13;5051609;28;20050;-92
2023/01/15 12:24:49;;;;;;;;;;;;;;;24.19;22.16;97068.59;5050156;28;19928;-92
2023/01/15 12:27:25;;;;;;;;;;;;;;;23.61;24.13;97063.53;5052499;28;19928;-91
2023/01/15 12:30:01;;;;;;;;;;;;;;;24.34;23.39;97055.59;5051865;28;19921;-92
2023/01/15 12:32:30;;;;;;;;;;;;;;;24.59;23.03;97052.59;5055712;28;19962;-92
2023/01/15 12:35:12;;;;;;;;;;;;;;;24.84;22.65;97051.59;5056975;28;19928;-92
2023/01/15 12:37:51;;;;;;;;;;;;;;;25.13;22.80;97052.78;5042515;28;20413;-92
2023/01/15 12:40:26;;;;;;;;;;;;;;;25.17;22.66;97056.22;5053595;28;19924;-92
2023/01/15 12:45:43;;;;;;;;;;;;;;;25.33;22.58;97050.28;5056963;28;19970;-92
2023/01/15 12:48:15;;;;;;;;;;;;;;;25.82;22.30;97038.91;5048311;28;19932;-92
2023/01/15 12:50:45;;;;;;;;;;;;;;;25.83;22.49;97039.69;5044300;28;20385;-93
2023/01/15 12:53:20;;;;;;;;;;;;;;;25.60;23.31;97035.47;5053614;28;19917;-92
2023/01/15 12:56:04;;;;;;;;;;;;;;;24.85;24.63;97027.91;5054052;28;19921;-91
2023/01/15 12:58:37;;;;;;;;;;;;;;;25.08;23.18;97033.72;5054229;28;19920;-92
2023/01/15 13:01:09;;;;;;;;;;;;;;;25.46;23.27;97022.06;5053109;28;20504;-94
2023/01/15 13:03:55;;;;;;;;;;;;;;;25.43;22.43;97017.34;5057446;28;19921;-91
2023/01/15 13:06:25;;;;;;;;;;;;;;;24.76;23.07;97025.88;5066265;28;20339;-92
2023/01/15 13:08:54;;;;;;;;;;;;;;;25.71;22.02;97020.94;5050853;28;19927;-93
2023/01/15 13:11:21;;;;;;;;;;;;;;;25.21;23.08;97016.72;5059238;28;20417;-93
2023/01/15 13:13:56;;;;;;;;;;;;;;;25.99;22.58;97016.84;5043772;28;20011;-92
2023/01/15 13:16:34;;;;;;;;;;;;;;;26.62;21.38;97019.47;5052053;28;19920;-91
2023/01/15 13:19:12;;;;;;;;;;;;;;;26.38;21.44;97017.81;5048494;28;19928;-95
2023/01/15 13:21:40;;;;;;;;;;;;;;;26.05;21.78;97009.31;5056914;28;19921;-91
2023/01/15 13:24:15;;;;;;;;;;;;;;;26.02;21.58;97001.84;5053410;28;19974;-91
2023/01/15 13:26:49;;;;;;;;;;;;;;;25.99;21.47;97005.59;5048573;28;19972;-93
2023/01/15 13:29:22;;;;;;;;;;;;;;;26.76;21.15;97003.91;5048962;28;19929;-95
2023/01/15 13:31:52;;;;;;;;;;;;;;;26.59;21.58;96997.88;5052982;28;19932;-96
2023/01/15 13:34:33;;;;;;;;;;;;;;;26.46;21.28;97004.97;5048860;28;19929;-95
2023/01/15 13:37:12;;;;;;;;;;;;;;;25.97;22.51;97006.06;5051698;28;19928;-92
2023/01/15 13:39:40;;;;;;;;;;;;;;;26.32;21.07;96986.75;5048855;28;19929;-95
2023/01/15 13:42:36;;;;;;;;;;;;;;;26.29;21.29;96984.09;5053035;28;20322;-95
2023/01/15 13:45:19;;;;;;;;;;;;;;;25.31;21.62;96985.34;5041925;28;19952;-96